Archival Weather

Chicago O'Hare International

Chicago, Illinois (KORD)

Report from: Wednesday, August 23, 2023 12:51 PM CDT
Current time: Monday, July 22, 2024 6:07 AM CDT

Current weather – Weather history – Daily summaries
Weather forecast

Temperature35.6°C (96.1°F)
Heat index45.1°C (113.2°F)
Dew point25.6°C (78.1°F)
Winds 12 kts (6.2 m/s, 13.8 mph) West (260°)
Wind gusts 21 kts (10.8 m/s, 24.2 mph)
Visibility10 mi. (16.1 km)
Clouds Few clouds 2,500 ft. (762 m)
Few clouds 25,000 ft. (7,620 m)
Altimeter29.93 in.Hg (1014 mB)
Relative humidity57 %
Density altitude2,786 ft. (849 m)
Sea-level pressure101.3 kPa (1013 mB, 29.91 in.Hg)
Max temp last 6 hours35.6°C (96.1°F)
Min temp last 6 hours25.6°C (78.1°F)
Remarks Automated weather observing station with precipitation discriminator
Pressure falling
Flight conditions Visual Meteorological Conditions
Raw dataKORD 231751Z 26012G21KT 10SM FEW025 FEW250 36/26 A2993 RMK AO2 SLP128 T03560256 10356 20256 57018
An error has occurred. This application may no longer respond until reloaded. Reload 🗙